Time,TemperatureF,DewpointF,PressureIn,WindDirection,WindDirectionDegrees,WindSpeedMPH,WindSpeedGustMPH,Humidity,HourlyPrecipIn,Conditions,Clouds,dailyrainin,SoftwareType,DateUTC
2013-02-11 00:00:00,50.5,48.7,29.84,West,266,3.0,9.0,93,0.01,,,0.09,VWS V14.01,2013-02-11 05:00:00,
2013-02-11 00:05:00,50.6,49.1,29.84,West,259,3.0,3.0,94,0.01,,,0.00,VWS V14.01,2013-02-11 05:05:00,
2013-02-11 00:10:00,50.6,49.1,29.83,SE,127,4.5,4.5,94,0.01,,,0.00,VWS V14.01,2013-02-11 05:10:00,
2013-02-11 00:15:00,50.7,49.2,29.83,SSW,206,6.0,9.0,94,0.01,,,0.00,VWS V14.01,2013-02-11 05:15:00,
2013-02-11 00:20:00,51.0,49.5,29.84,SSW,199,4.5,4.5,94,0.01,,,0.00,VWS V14.01,2013-02-11 05:20:00,
2013-02-11 00:25:00,51.1,49.6,29.84,SW,231,7.5,7.5,94,0.01,,,0.00,VWS V14.01,2013-02-11 05:25:00,
2013-02-11 00:30:00,51.4,49.9,29.84,WSW,248,6.0,6.0,94,0.01,,,0.00,VWS V14.01,2013-02-11 05:30:00,
2013-02-11 00:35:00,51.6,50.1,29.84,SSW,213,13.5,13.5,94,0.01,,,0.00,VWS V14.01,2013-02-11 05:35:00,
2013-02-11 00:40:00,51.8,50.3,29.84,WSW,250,3.0,6.0,94,0.01,,,0.00,VWS V14.01,2013-02-11 05:40:00,
2013-02-11 00:45:00,52.1,50.6,29.84,WSW,251,7.5,16.5,94,0.01,,,0.00,VWS V14.01,2013-02-11 05:45:00,
2013-02-11 00:50:00,52.3,50.5,29.84,WSW,243,10.5,16.5,93,0.01,,,0.00,VWS V14.01,2013-02-11 05:50:00,
2013-02-11 00:55:00,52.4,50.6,29.85,WSW,258,7.5,16.5,93,0.01,,,0.00,VWS V14.01,2013-02-11 05:55:00,
2013-02-11 01:00:00,52.5,50.7,29.85,SW,220,9.0,10.5,93,0.00,,,0.00,VWS V14.01,2013-02-11 06:00:00,
2013-02-11 01:05:00,52.5,50.7,29.85,SSW,213,7.5,7.5,93,0.00,,,0.00,VWS V14.01,2013-02-11 06:05:00,
2013-02-11 01:10:00,52.5,50.7,29.85,SW,220,7.5,13.5,93,0.00,,,0.00,VWS V14.01,2013-02-11 06:10:00,
2013-02-11 01:15:00,52.5,50.7,29.86,SW,226,9.0,9.0,93,0.00,,,0.00,VWS V14.01,2013-02-11 06:15:00,
2013-02-11 01:20:00,52.6,50.8,29.85,SW,216,10.5,16.5,93,0.00,,,0.00,VWS V14.01,2013-02-11 06:20:00,
2013-02-11 01:25:00,52.8,51.0,29.86,SSW,206,3.0,9.0,93,0.00,,,0.00,VWS V14.01,2013-02-11 06:25:00,
2013-02-11 01:30:00,52.8,50.7,29.86,WSW,237,7.5,15.0,92,0.00,,,0.00,VWS V14.01,2013-02-11 06:30:00,
2013-02-11 01:35:00,53.0,50.9,29.86,SW,228,7.5,13.5,92,0.00,,,0.00,VWS V14.01,2013-02-11 06:35:00,
2013-02-11 01:40:00,53.2,51.1,29.86,SW,231,10.5,18.0,92,0.00,,,0.00,VWS V14.01,2013-02-11 06:40:00,
2013-02-11 01:45:00,53.4,51.3,29.86,SSW,209,10.5,10.5,92,0.00,,,0.00,VWS V14.01,2013-02-11 06:45:00,
2013-02-11 01:50:00,53.6,51.5,29.85,WSW,237,9.0,15.0,92,0.00,,,0.00,VWS V14.01,2013-02-11 06:50:00,
2013-02-11 01:55:00,53.7,51.2,29.85,SW,225,7.5,15.0,91,0.00,,,0.00,VWS V14.01,2013-02-11 06:55:00,
2013-02-11 02:00:00,53.7,51.2,29.85,WSW,243,7.5,15.0,91,0.00,,,0.00,VWS V14.01,2013-02-11 07:00:00,
2013-02-11 02:04:00,53.8,51.3,29.84,WSW,245,9.0,13.5,91,0.00,,,0.00,VWS V14.01,2013-02-11 07:04:00,
2013-02-11 02:09:00,53.8,51.3,29.85,SW,230,9.0,10.5,91,0.00,,,0.00,VWS V14.01,2013-02-11 07:09:00,
2013-02-11 02:14:00,53.9,51.4,29.84,SW,231,7.5,12.0,91,0.00,,,0.00,VWS V14.01,2013-02-11 07:14:00,
2013-02-11 02:19:00,54.0,51.5,29.84,SSW,207,12.0,12.0,91,0.00,,,0.00,VWS V14.01,2013-02-11 07:19:00,
2013-02-11 02:24:00,54.1,51.6,29.84,SSW,203,10.5,12.0,91,0.00,,,0.00,VWS V14.01,2013-02-11 07:24:00,
2013-02-11 02:29:00,54.2,51.7,29.85,SSW,209,7.5,16.5,91,0.00,,,0.00,VWS V14.01,2013-02-11 07:29:00,
2013-02-11 02:34:00,54.3,51.8,29.85,West,264,13.5,13.5,91,0.00,,,0.00,VWS V14.01,2013-02-11 07:34:00,
2013-02-11 02:39:00,54.3,51.8,29.85,WSW,251,10.5,10.5,91,0.00,,,0.00,VWS V14.01,2013-02-11 07:39:00,
2013-02-11 02:44:00,54.4,51.9,29.85,West,266,7.5,13.5,91,0.00,,,0.00,VWS V14.01,2013-02-11 07:44:00,
2013-02-11 02:49:00,54.5,52.0,29.85,WSW,237,16.5,21.0,91,0.00,,,0.00,VWS V14.01,2013-02-11 07:49:00,
2013-02-11 02:54:00,54.6,52.1,29.85,SW,234,15.0,22.5,91,0.00,,,0.00,VWS V14.01,2013-02-11 07:54:00,
2013-02-11 02:59:00,54.7,52.2,29.85,West,271,7.5,9.0,91,0.00,,,0.00,VWS V14.01,2013-02-11 07:59:00,
2013-02-11 03:04:00,54.8,52.3,29.85,WSW,250,13.5,15.0,91,0.00,,,0.00,VWS V14.01,2013-02-11 08:04:00,
2013-02-11 03:09:00,55.0,52.2,29.85,WSW,250,10.5,16.5,90,0.00,,,0.00,VWS V14.01,2013-02-11 08:09:00,
2013-02-11 03:14:00,55.0,52.2,29.85,SW,224,10.5,10.5,90,0.00,,,0.00,VWS V14.01,2013-02-11 08:14:00,
2013-02-11 03:19:00,55.1,52.3,29.84,WSW,245,16.5,16.5,90,0.00,,,0.00,VWS V14.01,2013-02-11 08:19:00,
2013-02-11 03:24:00,55.1,52.3,29.84,WSW,244,12.0,19.5,90,0.00,,,0.00,VWS V14.01,2013-02-11 08:24:00,
2013-02-11 03:29:00,55.1,52.3,29.84,WSW,240,10.5,15.0,90,0.00,,,0.00,VWS V14.01,2013-02-11 08:29:00,
2013-02-11 03:34:00,55.0,51.9,29.83,West,259,10.5,10.5,89,0.00,,,0.00,VWS V14.01,2013-02-11 08:34:00,
2013-02-11 03:39:00,55.2,52.1,29.84,SSW,206,16.5,25.5,89,0.00,,,0.00,VWS V14.01,2013-02-11 08:39:00,
2013-02-11 03:44:00,55.3,52.2,29.84,SW,220,19.5,25.5,89,0.00,,,0.00,VWS V14.01,2013-02-11 08:44:00,
2013-02-11 03:49:00,55.4,52.3,29.84,SW,236,25.5,27.0,89,0.00,,,0.00,VWS V14.01,2013-02-11 08:49:00,
2013-02-11 03:54:00,55.4,52.3,29.84,SW,236,19.5,19.5,89,0.00,,,0.00,VWS V14.01,2013-02-11 08:54:00,
2013-02-11 03:59:00,55.3,52.2,29.84,SSW,208,9.0,13.5,89,0.00,,,0.00,VWS V14.01,2013-02-11 08:59:00,
2013-02-11 04:04:00,55.2,52.1,29.84,SSW,209,9.0,9.0,89,0.00,,,0.00,VWS V14.01,2013-02-11 09:04:00,
2013-02-11 04:09:00,55.1,52.0,29.84,WSW,243,12.0,15.0,89,0.00,,,0.00,VWS V14.01,2013-02-11 09:09:00,
2013-02-11 04:14:00,55.0,52.2,29.84,WSW,248,13.5,24.0,90,0.00,,,0.00,VWS V14.01,2013-02-11 09:14:00,
2013-02-11 04:19:00,55.1,52.0,29.84,SW,225,13.5,13.5,89,0.00,,,0.00,VWS V14.01,2013-02-11 09:19:00,
2013-02-11 04:24:00,55.1,52.0,29.85,SW,236,19.5,25.5,89,0.00,,,0.00,VWS V14.01,2013-02-11 09:24:00,
2013-02-11 04:29:00,55.1,52.0,29.85,SSW,212,10.5,18.0,89,0.00,,,0.00,VWS V14.01,2013-02-11 09:29:00,
2013-02-11 04:34:00,55.1,52.0,29.85,SW,236,13.5,18.0,89,0.00,,,0.00,VWS V14.01,2013-02-11 09:34:00,
2013-02-11 04:39:00,55.0,51.9,29.85,SSW,213,9.0,13.5,89,0.00,,,0.00,VWS V14.01,2013-02-11 09:39:00,
2013-02-11 04:44:00,54.8,51.7,29.85,SSW,200,13.5,15.0,89,0.00,,,0.00,VWS V14.01,2013-02-11 09:44:00,
2013-02-11 04:49:00,54.8,51.7,29.85,WSW,243,12.0,15.0,89,0.00,,,0.00,VWS V14.01,2013-02-11 09:49:00,
2013-02-11 04:54:00,54.9,51.5,29.85,WSW,244,16.5,18.0,88,0.00,,,0.00,VWS V14.01,2013-02-11 09:54:00,
2013-02-11 04:59:00,54.7,51.3,29.85,WSW,251,9.0,15.0,88,0.00,,,0.00,VWS V14.01,2013-02-11 09:59:00,
2013-02-11 05:04:00,54.7,51.3,29.85,SW,214,12.0,15.0,88,0.00,,,0.00,VWS V14.01,2013-02-11 10:04:00,
2013-02-11 05:09:00,54.7,51.0,29.85,SW,228,21.0,21.0,87,0.00,,,0.00,VWS V14.01,2013-02-11 10:09:00,
2013-02-11 05:14:00,54.6,50.9,29.85,WSW,243,16.5,19.5,87,0.00,,,0.00,VWS V14.01,2013-02-11 10:14:00,
2013-02-11 05:19:00,54.7,51.0,29.85,WSW,248,19.5,19.5,87,0.00,,,0.00,VWS V14.01,2013-02-11 10:19:00,
2013-02-11 05:24:00,54.6,50.9,29.85,WSW,253,13.5,16.5,87,0.00,,,0.00,VWS V14.01,2013-02-11 10:24:00,
2013-02-11 05:29:00,54.6,50.5,29.85,SW,228,12.0,18.0,86,0.00,,,0.00,VWS V14.01,2013-02-11 10:29:00,
2013-02-11 05:34:00,54.4,50.3,29.85,WSW,245,16.5,19.5,86,0.00,,,0.00,VWS V14.01,2013-02-11 10:34:00,
2013-02-11 05:39:00,54.2,50.1,29.85,WSW,248,6.0,15.0,86,0.00,,,0.00,VWS V14.01,2013-02-11 10:39:00,
2013-02-11 05:44:00,54.3,50.2,29.85,WSW,252,12.0,15.0,86,0.00,,,0.00,VWS V14.01,2013-02-11 10:44:00,
2013-02-11 05:49:00,54.2,50.1,29.84,SW,236,22.5,22.5,86,0.00,,,0.00,VWS V14.01,2013-02-11 10:49:00,
2013-02-11 05:54:00,54.1,50.0,29.84,SW,230,16.5,18.0,86,0.00,,,0.00,VWS V14.01,2013-02-11 10:54:00,
2013-02-11 05:59:00,54.0,49.9,29.84,SW,236,12.0,18.0,86,0.00,,,0.00,VWS V14.01,2013-02-11 10:59:00,
2013-02-11 06:04:00,54.1,49.7,29.85,SSW,206,16.5,27.0,85,0.00,,,0.00,VWS V14.01,2013-02-11 11:04:00,
2013-02-11 06:09:00,54.0,49.6,29.85,West,271,13.5,18.0,85,0.00,,,0.00,VWS V14.01,2013-02-11 11:09:00,
2013-02-11 06:14:00,53.8,49.4,29.85,SW,230,24.0,24.0,85,0.00,,,0.00,VWS V14.01,2013-02-11 11:14:00,
2013-02-11 06:19:00,53.7,49.3,29.86,WSW,246,15.0,16.5,85,0.00,,,0.00,VWS V14.01,2013-02-11 11:19:00,
2013-02-11 06:24:00,53.6,49.2,29.86,SW,214,9.0,15.0,85,0.00,,,0.00,VWS V14.01,2013-02-11 11:24:00,
2013-02-11 06:29:00,53.6,48.9,29.86,WSW,258,13.5,18.0,84,0.00,,,0.00,VWS V14.01,2013-02-11 11:29:00,
2013-02-11 06:34:00,53.6,48.9,29.86,WSW,243,12.0,12.0,84,0.00,,,0.00,VWS V14.01,2013-02-11 11:34:00,
2013-02-11 06:39:00,53.5,48.8,29.86,West,259,10.5,18.0,84,0.00,,,0.00,VWS V14.01,2013-02-11 11:39:00,
2013-02-11 06:44:00,53.5,48.5,29.86,SW,236,19.5,22.5,83,0.00,,,0.00,VWS V14.01,2013-02-11 11:44:00,
2013-02-11 06:49:00,53.3,48.3,29.86,WSW,251,24.0,24.0,83,0.00,,,0.00,VWS V14.01,2013-02-11 11:49:00,
2013-02-11 06:54:00,53.2,47.5,29.86,SW,226,16.5,19.5,81,0.00,,,0.00,VWS V14.01,2013-02-11 11:54:00,
2013-02-11 06:59:00,53.3,46.5,29.86,WSW,252,7.5,10.5,78,0.00,,,0.00,VWS V14.01,2013-02-11 11:59:00,
2013-02-11 07:04:00,53.1,46.3,29.87,WSW,243,19.5,19.5,78,0.00,,,0.00,VWS V14.01,2013-02-11 12:04:00,
2013-02-11 07:09:00,52.9,45.8,29.87,WSW,250,19.5,27.0,77,0.00,,,0.00,VWS V14.01,2013-02-11 12:09:00,
2013-02-11 07:14:00,52.7,45.9,29.87,WSW,245,16.5,16.5,78,0.00,,,0.00,VWS V14.01,2013-02-11 12:14:00,
2013-02-11 07:19:00,52.5,45.8,29.88,WSW,252,21.0,21.0,78,0.00,,,0.00,VWS V14.01,2013-02-11 12:19:00,
2013-02-11 07:24:00,52.4,45.3,29.88,WSW,255,10.5,15.0,77,0.00,,,0.00,VWS V14.01,2013-02-11 12:24:00,
2013-02-11 07:29:00,52.3,44.5,29.88,WSW,247,13.5,13.5,75,0.00,,,0.00,VWS V14.01,2013-02-11 12:29:00,
2013-02-11 07:34:00,52.2,44.7,29.88,WSW,241,13.5,13.5,76,0.00,,,0.00,VWS V14.01,2013-02-11 12:34:00,
2013-02-11 07:39:00,52.0,44.2,29.89,WSW,258,13.5,19.5,75,0.00,,,0.00,VWS V14.01,2013-02-11 12:39:00,
2013-02-11 07:44:00,51.9,44.1,29.89,WSW,250,13.5,16.5,75,0.00,,,0.00,VWS V14.01,2013-02-11 12:44:00,
2013-02-11 07:49:00,51.7,43.1,29.89,SW,220,13.5,13.5,72,0.00,,,0.00,VWS V14.01,2013-02-11 12:49:00,
2013-02-11 07:54:00,51.6,43.0,29.90,West,278,12.0,12.0,72,0.00,,,0.00,VWS V14.01,2013-02-11 12:54:00,
2013-02-11 07:59:00,51.5,43.0,29.90,West,266,22.5,22.5,72,0.00,,,0.00,VWS V14.01,2013-02-11 12:59:00,
2013-02-11 08:04:00,51.6,41.1,29.90,WNW,285,18.0,37.5,67,0.00,,,0.00,VWS V14.01,2013-02-11 13:04:00,
2013-02-11 08:09:00,51.6,40.7,29.90,WSW,252,21.0,27.0,66,0.00,,,0.00,VWS V14.01,2013-02-11 13:09:00,
2013-02-11 08:14:00,51.5,41.0,29.90,West,272,15.0,15.0,67,0.00,,,0.00,VWS V14.01,2013-02-11 13:14:00,
2013-02-11 08:19:00,51.5,41.0,29.90,West,260,12.0,12.0,67,0.00,,,0.00,VWS V14.01,2013-02-11 13:19:00,
2013-02-11 08:24:00,51.3,39.6,29.90,WSW,255,15.0,33.0,64,0.00,,,0.00,VWS V14.01,2013-02-11 13:24:00,
2013-02-11 08:29:00,51.4,38.8,29.91,WNW,282,21.0,24.0,62,0.00,,,0.00,VWS V14.01,2013-02-11 13:29:00,
2013-02-11 08:34:00,51.4,38.8,29.91,WSW,238,10.5,10.5,62,0.00,,,0.00,VWS V14.01,2013-02-11 13:34:00,
2013-02-11 08:39:00,51.3,39.2,29.92,WSW,247,13.5,15.0,63,0.00,,,0.00,VWS V14.01,2013-02-11 13:39:00,
2013-02-11 08:44:00,51.3,39.6,29.92,West,266,16.5,19.5,64,0.00,,,0.00,VWS V14.01,2013-02-11 13:44:00,
2013-02-11 08:49:00,51.3,40.0,29.92,SSW,210,19.5,19.5,65,0.00,,,0.00,VWS V14.01,2013-02-11 13:49:00,
2013-02-11 08:54:00,51.2,39.5,29.93,WSW,243,18.0,18.0,64,0.00,,,0.00,VWS V14.01,2013-02-11 13:54:00,
2013-02-11 08:59:00,51.1,37.7,29.92,West,278,18.0,31.5,60,0.00,,,0.00,VWS V14.01,2013-02-11 13:59:00,
2013-02-11 09:04:00,51.2,37.3,29.93,West,277,22.5,22.5,59,0.00,,,0.00,VWS V14.01,2013-02-11 14:04:00,
2013-02-11 09:09:00,51.3,36.9,29.93,West,275,21.0,21.0,58,0.00,,,0.00,VWS V14.01,2013-02-11 14:09:00,
2013-02-11 09:14:00,51.3,36.9,29.93,WSW,245,24.0,33.0,58,0.00,,,0.00,VWS V14.01,2013-02-11 14:14:00,
2013-02-11 09:19:00,51.3,37.8,29.93,WSW,258,25.5,25.5,60,0.00,,,0.00,VWS V14.01,2013-02-11 14:19:00,
2013-02-11 09:24:00,51.3,37.8,29.92,SW,217,22.5,24.0,60,0.00,,,0.00,VWS V14.01,2013-02-11 14:24:00,
2013-02-11 09:29:00,51.1,36.7,29.92,West,276,18.0,28.5,58,0.00,,,0.00,VWS V14.01,2013-02-11 14:29:00,
2013-02-11 09:34:00,51.0,37.6,29.92,SW,226,18.0,21.0,60,0.00,,,0.00,VWS V14.01,2013-02-11 14:34:00,
2013-02-11 09:39:00,51.1,36.3,29.92,West,271,21.0,31.5,57,0.00,,,0.00,VWS V14.01,2013-02-11 14:39:00,
2013-02-11 09:44:00,51.0,35.7,29.93,West,278,19.5,36.0,56,0.00,,,0.00,VWS V14.01,2013-02-11 14:44:00,
2013-02-11 09:49:00,51.0,35.7,29.92,WSW,245,21.0,22.5,56,0.00,,,0.00,VWS V14.01,2013-02-11 14:49:00,
2013-02-11 09:54:00,51.1,36.3,29.92,West,269,10.5,18.0,57,0.00,,,0.00,VWS V14.01,2013-02-11 14:54:00,
2013-02-11 09:59:00,51.0,35.2,29.92,SW,236,19.5,28.5,55,0.00,,,0.00,VWS V14.01,2013-02-11 14:59:00,
2013-02-11 10:04:00,51.0,35.2,29.92,WNW,285,18.0,22.5,55,0.00,,,0.00,VWS V14.01,2013-02-11 15:04:00,
2013-02-11 10:09:00,50.9,34.2,29.93,SW,226,31.5,31.5,52,0.00,,,0.00,VWS V14.01,2013-02-11 15:09:00,
2013-02-11 10:14:00,50.7,34.0,29.93,WNW,288,24.0,37.5,52,0.00,,,0.00,VWS V14.01,2013-02-11 15:14:00,
2013-02-11 10:19:00,50.4,33.7,29.93,SW,232,13.5,25.5,52,0.00,,,0.00,VWS V14.01,2013-02-11 15:19:00,
2013-02-11 10:24:00,50.6,32.9,29.93,WNW,285,28.5,30.0,50,0.00,,,0.00,VWS V14.01,2013-02-11 15:24:00,
2013-02-11 10:29:00,50.8,33.0,29.93,West,277,16.5,28.5,50,0.00,,,0.00,VWS V14.01,2013-02-11 15:29:00,
2013-02-11 10:34:00,50.8,33.0,29.93,West,261,15.0,27.0,50,0.00,,,0.00,VWS V14.01,2013-02-11 15:34:00,
2013-02-11 10:39:00,50.6,32.9,29.94,WSW,257,25.5,33.0,50,0.00,,,0.00,VWS V14.01,2013-02-11 15:39:00,
2013-02-11 10:44:00,50.4,33.7,29.94,West,261,13.5,27.0,52,0.00,,,0.00,VWS V14.01,2013-02-11 15:44:00,
2013-02-11 10:49:00,50.5,33.3,29.94,West,266,10.5,24.0,51,0.00,,,0.00,VWS V14.01,2013-02-11 15:49:00,
2013-02-11 10:53:00,50.6,32.9,29.94,West,262,19.5,30.0,50,0.00,,,0.00,VWS V14.01,2013-02-11 15:53:00,
2013-02-11 10:58:00,50.6,32.9,29.95,WNW,285,21.0,27.0,50,0.00,,,0.00,VWS V14.01,2013-02-11 15:58:00,
2013-02-11 11:03:00,50.7,31.9,29.95,West,266,25.5,37.5,48,0.00,,,0.00,VWS V14.01,2013-02-11 16:03:00,
2013-02-11 11:08:00,50.8,31.4,29.95,WSW,250,18.0,37.5,47,0.00,,,0.00,VWS V14.01,2013-02-11 16:08:00,
2013-02-11 11:13:00,50.9,31.5,29.95,WNW,302,18.0,25.5,47,0.00,,,0.00,VWS V14.01,2013-02-11 16:13:00,
2013-02-11 11:18:00,51.1,32.3,29.96,West,266,7.5,21.0,48,0.00,,,0.00,VWS V14.01,2013-02-11 16:18:00,
2013-02-11 11:23:00,51.4,33.6,29.96,WSW,245,19.5,27.0,50,0.00,,,0.00,VWS V14.01,2013-02-11 16:23:00,
2013-02-11 11:28:00,51.4,32.5,29.96,WSW,243,21.0,25.5,48,0.00,,,0.00,VWS V14.01,2013-02-11 16:28:00,
2013-02-11 11:33:00,51.3,30.2,29.97,WSW,244,34.5,34.5,44,0.00,,,0.00,VWS V14.01,2013-02-11 16:33:00,
2013-02-11 11:38:00,50.9,29.2,29.97,WNW,285,18.0,27.0,43,0.00,,,0.00,VWS V14.01,2013-02-11 16:38:00,
2013-02-11 11:43:00,50.6,27.8,29.97,West,271,27.0,40.5,41,0.00,,,0.00,VWS V14.01,2013-02-11 16:43:00,
2013-02-11 11:48:00,50.3,28.1,29.97,WSW,258,15.0,31.5,42,0.00,,,0.00,VWS V14.01,2013-02-11 16:48:00,
2013-02-11 11:53:00,50.1,28.5,29.96,WSW,253,25.5,36.0,43,0.00,,,0.00,VWS V14.01,2013-02-11 16:53:00,
2013-02-11 11:58:00,49.9,28.9,29.96,West,264,16.5,22.5,44,0.00,,,0.00,VWS V14.01,2013-02-11 16:58:00,
2013-02-11 12:03:00,50.0,29.0,29.96,WSW,240,24.0,33.0,44,0.00,,,0.00,VWS V14.01,2013-02-11 17:03:00,
2013-02-11 12:08:00,50.2,28.6,29.96,WSW,251,13.5,27.0,43,0.00,,,0.00,VWS V14.01,2013-02-11 17:08:00,
2013-02-11 12:13:00,50.1,29.1,29.96,WSW,245,12.0,24.0,44,0.00,,,0.00,VWS V14.01,2013-02-11 17:13:00,
2013-02-11 12:18:00,50.2,29.8,29.95,WSW,250,15.0,22.5,45,0.00,,,0.00,VWS V14.01,2013-02-11 17:18:00,
2013-02-11 12:23:00,50.6,30.7,29.95,SW,233,18.0,18.0,46,0.00,,,0.00,VWS V14.01,2013-02-11 17:23:00,
2013-02-11 12:28:00,50.9,31.0,29.95,West,271,13.5,13.5,46,0.00,,,0.00,VWS V14.01,2013-02-11 17:28:00,
2013-02-11 12:33:00,50.9,31.0,29.95,WSW,255,12.0,21.0,46,0.00,,,0.00,VWS V14.01,2013-02-11 17:33:00,
2013-02-11 12:38:00,50.5,30.0,29.95,SW,236,16.5,24.0,45,0.00,,,0.00,VWS V14.01,2013-02-11 17:38:00,
2013-02-11 12:43:00,50.5,30.6,29.96,SW,228,24.0,28.5,46,0.00,,,0.00,VWS V14.01,2013-02-11 17:43:00,
2013-02-11 12:48:00,50.4,30.0,29.95,WSW,243,24.0,24.0,45,0.00,,,0.00,VWS V14.01,2013-02-11 17:48:00,
2013-02-11 12:53:00,50.4,30.0,29.95,WNW,285,15.0,31.5,45,0.00,,,0.00,VWS V14.01,2013-02-11 17:53:00,
2013-02-11 12:58:00,50.2,29.2,29.96,West,271,19.5,22.5,44,0.00,,,0.00,VWS V14.01,2013-02-11 17:58:00,
2013-02-11 13:03:00,50.2,29.8,29.96,West,278,15.0,24.0,45,0.00,,,0.00,VWS V14.01,2013-02-11 18:03:00,
2013-02-11 13:08:00,50.4,30.0,29.96,WSW,240,13.5,24.0,45,0.00,,,0.00,VWS V14.01,2013-02-11 18:08:00,
2013-02-11 13:13:00,50.4,30.0,29.96,West,269,25.5,39.0,45,0.00,,,0.00,VWS V14.01,2013-02-11 18:13:00,
2013-02-11 13:18:00,50.0,29.0,29.97,SW,236,15.0,16.5,44,0.00,,,0.00,VWS V14.01,2013-02-11 18:18:00,
2013-02-11 13:23:00,49.8,28.2,29.97,West,259,31.5,31.5,43,0.00,,,0.00,VWS V14.01,2013-02-11 18:23:00,
2013-02-11 13:28:00,49.6,28.7,29.97,West,273,19.5,25.5,44,0.00,,,0.00,VWS V14.01,2013-02-11 18:28:00,
2013-02-11 13:33:00,49.5,28.6,29.97,WSW,244,19.5,27.0,44,0.00,,,0.00,VWS V14.01,2013-02-11 18:33:00,
2013-02-11 13:38:00,49.8,30.0,29.97,WSW,254,15.0,19.5,46,0.00,,,0.00,VWS V14.01,2013-02-11 18:38:00,
2013-02-11 13:43:00,50.1,29.1,29.96,WSW,240,22.5,28.5,44,0.00,,,0.00,VWS V14.01,2013-02-11 18:43:00,
2013-02-11 13:48:00,50.1,30.8,29.96,WNW,284,9.0,12.0,47,0.00,,,0.00,VWS V14.01,2013-02-11 18:48:00,
2013-02-11 13:53:00,50.1,30.8,29.96,SW,236,12.0,25.5,47,0.00,,,0.00,VWS V14.01,2013-02-11 18:53:00,
2013-02-11 13:58:00,49.9,30.6,29.96,WSW,238,12.0,18.0,47,0.00,,,0.00,VWS V14.01,2013-02-11 18:58:00,
2013-02-11 14:03:00,49.8,30.0,29.96,WSW,240,24.0,30.0,46,0.00,,,0.00,VWS V14.01,2013-02-11 19:03:00,
2013-02-11 14:08:00,49.7,29.9,29.96,West,276,19.5,28.5,46,0.00,,,0.00,VWS V14.01,2013-02-11 19:08:00,
2013-02-11 14:13:00,49.7,29.9,29.97,SW,236,13.5,18.0,46,0.00,,,0.00,VWS V14.01,2013-02-11 19:13:00,
2013-02-11 14:18:00,49.8,30.0,29.97,West,279,18.0,25.5,46,0.00,,,0.00,VWS V14.01,2013-02-11 19:18:00,
2013-02-11 14:23:00,49.5,29.1,29.96,WSW,257,37.5,37.5,45,0.00,,,0.00,VWS V14.01,2013-02-11 19:23:00,
2013-02-11 14:28:00,50.0,30.2,29.96,WSW,243,16.5,21.0,46,0.00,,,0.00,VWS V14.01,2013-02-11 19:28:00,
2013-02-11 14:33:00,50.3,30.4,29.96,WSW,247,19.5,21.0,46,0.00,,,0.00,VWS V14.01,2013-02-11 19:33:00,
2013-02-11 14:38:00,50.4,30.5,29.96,SW,226,15.0,25.5,46,0.00,,,0.00,VWS V14.01,2013-02-11 19:38:00,
2013-02-11 14:43:00,50.3,29.9,29.96,WSW,248,19.5,24.0,45,0.00,,,0.00,VWS V14.01,2013-02-11 19:43:00,
2013-02-11 14:48:00,50.3,30.4,29.96,West,262,16.5,25.5,46,0.00,,,0.00,VWS V14.01,2013-02-11 19:48:00,
2013-02-11 14:53:00,50.2,29.8,29.96,WSW,243,22.5,30.0,45,0.00,,,0.00,VWS V14.01,2013-02-11 19:53:00,
2013-02-11 14:58:00,50.3,30.4,29.97,SW,228,13.5,25.5,46,0.00,,,0.00,VWS V14.01,2013-02-11 19:58:00,
2013-02-11 15:03:00,50.0,29.6,29.97,WSW,251,22.5,31.5,45,0.00,,,0.00,VWS V14.01,2013-02-11 20:03:00,
2013-02-11 15:08:00,49.9,29.5,29.96,WSW,245,22.5,22.5,45,0.00,,,0.00,VWS V14.01,2013-02-11 20:08:00,
2013-02-11 15:13:00,50.1,30.2,29.97,WSW,257,22.5,22.5,46,0.00,,,0.00,VWS V14.01,2013-02-11 20:13:00,
2013-02-11 15:18:00,50.1,29.7,29.97,WNW,297,34.5,34.5,45,0.00,,,0.00,VWS V14.01,2013-02-11 20:18:00,
2013-02-11 15:23:00,50.1,29.1,29.97,WNW,282,18.0,19.5,44,0.00,,,0.00,VWS V14.01,2013-02-11 20:23:00,
2013-02-11 15:28:00,50.4,29.4,29.96,West,264,10.5,22.5,44,0.00,,,0.00,VWS V14.01,2013-02-11 20:28:00,
2013-02-11 15:33:00,50.3,28.7,29.96,SSW,212,15.0,19.5,43,0.00,,,0.00,VWS V14.01,2013-02-11 20:33:00,
2013-02-11 15:38:00,50.0,29.6,29.96,NW,307,12.0,21.0,45,0.00,,,0.00,VWS V14.01,2013-02-11 20:38:00,
2013-02-11 15:43:00,50.2,29.8,29.96,WSW,257,9.0,15.0,45,0.00,,,0.00,VWS V14.01,2013-02-11 20:43:00,
2013-02-11 15:48:00,50.8,30.3,29.96,WSW,251,9.0,12.0,45,0.00,,,0.00,VWS V14.01,2013-02-11 20:48:00,
2013-02-11 15:53:00,51.3,30.2,29.96,SW,223,18.0,18.0,44,0.00,,,0.00,VWS V14.01,2013-02-11 20:53:00,
2013-02-11 15:58:00,51.2,30.7,29.96,West,262,12.0,13.5,45,0.00,,,0.00,VWS V14.01,2013-02-11 20:58:00,
2013-02-11 16:03:00,51.2,31.3,29.97,SW,214,18.0,21.0,46,0.00,,,0.00,VWS V14.01,2013-02-11 21:03:00,
2013-02-11 16:08:00,51.2,30.1,29.97,WNW,299,18.0,37.5,44,0.00,,,0.00,VWS V14.01,2013-02-11 21:08:00,
2013-02-11 16:13:00,50.9,29.8,29.97,West,271,30.0,31.5,44,0.00,,,0.00,VWS V14.01,2013-02-11 21:13:00,
2013-02-11 16:18:00,50.9,29.8,29.97,West,276,22.5,27.0,44,0.00,,,0.00,VWS V14.01,2013-02-11 21:18:00,
2013-02-11 16:23:00,50.4,29.4,29.97,WNW,284,19.5,24.0,44,0.00,,,0.00,VWS V14.01,2013-02-11 21:23:00,
2013-02-11 16:28:00,50.1,29.7,29.97,West,266,12.0,19.5,45,0.00,,,0.00,VWS V14.01,2013-02-11 21:28:00,
2013-02-11 16:33:00,50.5,30.0,29.97,WNW,290,16.5,16.5,45,0.00,,,0.00,VWS V14.01,2013-02-11 21:33:00,
2013-02-11 16:38:00,50.8,29.8,29.97,WNW,288,9.0,18.0,44,0.00,,,0.00,VWS V14.01,2013-02-11 21:38:00,
2013-02-11 16:43:00,50.9,29.2,29.97,West,274,13.5,18.0,43,0.00,,,0.00,VWS V14.01,2013-02-11 21:43:00,
2013-02-11 16:48:00,51.0,29.9,29.97,WNW,288,9.0,9.0,44,0.00,,,0.00,VWS V14.01,2013-02-11 21:48:00,
2013-02-11 16:53:00,51.1,30.0,29.97,WSW,251,12.0,13.5,44,0.00,,,0.00,VWS V14.01,2013-02-11 21:53:00,
2013-02-11 16:58:00,51.0,29.9,29.97,WSW,244,13.5,16.5,44,0.00,,,0.00,VWS V14.01,2013-02-11 21:58:00,
2013-02-11 17:03:00,50.9,30.4,29.98,WSW,241,24.0,24.0,45,0.00,,,0.00,VWS V14.01,2013-02-11 22:03:00,
2013-02-11 17:08:00,50.9,31.0,29.97,SW,219,13.5,13.5,46,0.00,,,0.00,VWS V14.01,2013-02-11 22:08:00,
2013-02-11 17:13:00,50.8,30.3,29.98,WSW,247,10.5,12.0,45,0.00,,,0.00,VWS V14.01,2013-02-11 22:13:00,
2013-02-11 17:18:00,50.9,29.8,29.98,West,264,25.5,25.5,44,0.00,,,0.00,VWS V14.01,2013-02-11 22:18:00,
2013-02-11 17:23:00,50.8,29.8,29.99,West,264,18.0,21.0,44,0.00,,,0.00,VWS V14.01,2013-02-11 22:23:00,
2013-02-11 17:28:00,50.7,29.7,29.99,WNW,287,16.5,16.5,44,0.00,,,0.00,VWS V14.01,2013-02-11 22:28:00,
2013-02-11 17:33:00,50.5,29.5,29.99,WSW,257,22.5,31.5,44,0.00,,,0.00,VWS V14.01,2013-02-11 22:33:00,
2013-02-11 17:38:00,50.4,30.0,29.99,West,264,15.0,16.5,45,0.00,,,0.00,VWS V14.01,2013-02-11 22:38:00,
2013-02-11 17:43:00,50.3,29.9,29.99,NW,318,9.0,10.5,45,0.00,,,0.00,VWS V14.01,2013-02-11 22:43:00,
2013-02-11 17:48:00,50.2,29.8,29.99,West,266,21.0,21.0,45,0.00,,,0.00,VWS V14.01,2013-02-11 22:48:00,
2013-02-11 17:53:00,50.0,29.6,29.99,WSW,255,9.0,15.0,45,0.00,,,0.00,VWS V14.01,2013-02-11 22:53:00,
2013-02-11 17:58:00,49.7,29.9,29.99,West,264,10.5,12.0,46,0.00,,,0.00,VWS V14.01,2013-02-11 22:58:00,
2013-02-11 18:03:00,49.4,30.2,29.99,WNW,284,7.5,10.5,47,0.00,,,0.00,VWS V14.01,2013-02-11 23:03:00,
2013-02-11 18:08:00,49.0,29.8,29.99,West,264,18.0,18.0,47,0.00,,,0.00,VWS V14.01,2013-02-11 23:08:00,
2013-02-11 18:13:00,48.8,29.6,29.99,WSW,246,12.0,12.0,47,0.00,,,0.00,VWS V14.01,2013-02-11 23:13:00,
2013-02-11 18:18:00,48.6,29.4,29.99,West,260,9.0,10.5,47,0.00,,,0.00,VWS V14.01,2013-02-11 23:18:00,
2013-02-11 18:23:00,48.6,30.0,30.00,WSW,252,10.5,13.5,48,0.00,,,0.00,VWS V14.01,2013-02-11 23:23:00,
2013-02-11 18:28:00,48.4,29.8,30.00,WSW,250,12.0,12.0,48,0.00,,,0.00,VWS V14.01,2013-02-11 23:28:00,
2013-02-11 18:33:00,48.3,29.7,30.00,West,279,12.0,12.0,48,0.00,,,0.00,VWS V14.01,2013-02-11 23:33:00,
2013-02-11 18:38:00,48.0,29.9,30.00,WNW,289,6.0,6.0,49,0.00,,,0.00,VWS V14.01,2013-02-11 23:38:00,
2013-02-11 18:43:00,47.9,29.9,30.00,WNW,290,19.5,21.0,49,0.00,,,0.00,VWS V14.01,2013-02-11 23:43:00,
2013-02-11 18:48:00,47.8,29.2,30.01,WNW,284,13.5,16.5,48,0.00,,,0.00,VWS V14.01,2013-02-11 23:48:00,
2013-02-11 18:53:00,47.6,29.0,30.01,WNW,296,10.5,12.0,48,0.00,,,0.00,VWS V14.01,2013-02-11 23:53:00,
2013-02-11 18:58:00,47.4,28.9,30.02,WSW,257,6.0,7.5,48,0.00,,,0.00,VWS V14.01,2013-02-11 23:58:00,
2013-02-11 19:03:00,47.1,28.6,30.02,WNW,285,4.5,10.5,48,0.00,,,0.00,VWS V14.01,2013-02-12 00:03:00,
2013-02-11 19:08:00,46.9,28.4,30.02,WNW,283,9.0,9.0,48,0.00,,,0.00,VWS V14.01,2013-02-12 00:08:00,
2013-02-11 19:13:00,46.8,28.3,30.02,WNW,292,13.5,15.0,48,0.00,,,0.00,VWS V14.01,2013-02-12 00:13:00,
2013-02-11 19:18:00,46.6,28.1,30.02,West,275,6.0,9.0,48,0.00,,,0.00,VWS V14.01,2013-02-12 00:18:00,
2013-02-11 19:23:00,46.6,28.1,30.02,West,269,10.5,10.5,48,0.00,,,0.00,VWS V14.01,2013-02-12 00:23:00,
2013-02-11 19:28:00,46.5,28.0,30.03,WNW,285,9.0,9.0,48,0.00,,,0.00,VWS V14.01,2013-02-12 00:28:00,
2013-02-11 19:33:00,46.3,28.4,30.03,West,260,7.5,9.0,49,0.00,,,0.00,VWS V14.01,2013-02-12 00:33:00,
2013-02-11 19:38:00,46.1,28.2,30.03,West,272,13.5,13.5,49,0.00,,,0.00,VWS V14.01,2013-02-12 00:38:00,
2013-02-11 19:43:00,46.0,28.1,30.03,West,276,9.0,9.0,49,0.00,,,0.00,VWS V14.01,2013-02-12 00:43:00,
2013-02-11 19:48:00,46.0,28.1,30.04,West,259,12.0,18.0,49,0.00,,,0.00,VWS V14.01,2013-02-12 00:48:00,
2013-02-11 19:53:00,45.9,28.0,30.04,West,268,16.5,16.5,49,0.00,,,0.00,VWS V14.01,2013-02-12 00:53:00,
2013-02-11 19:58:00,45.9,28.0,30.04,WNW,292,12.0,16.5,49,0.00,,,0.00,VWS V14.01,2013-02-12 00:58:00,
2013-02-11 20:03:00,45.7,28.3,30.04,West,273,12.0,12.0,50,0.00,,,0.00,VWS V14.01,2013-02-12 01:03:00,
2013-02-11 20:08:00,45.5,28.1,30.04,NNW,328,3.0,4.5,50,0.00,,,0.00,VWS V14.01,2013-02-12 01:08:00,
2013-02-11 20:13:00,45.4,28.1,30.05,West,272,6.0,12.0,50,0.00,,,0.00,VWS V14.01,2013-02-12 01:13:00,
2013-02-11 20:18:00,45.3,28.5,30.05,SW,233,7.5,12.0,51,0.00,,,0.00,VWS V14.01,2013-02-12 01:18:00,
2013-02-11 20:23:00,45.1,28.3,30.05,West,272,7.5,12.0,51,0.00,,,0.00,VWS V14.01,2013-02-12 01:23:00,
2013-02-11 20:28:00,44.9,28.6,30.06,WSW,254,6.0,10.5,52,0.00,,,0.00,VWS V14.01,2013-02-12 01:28:00,
2013-02-11 20:33:00,44.8,28.5,30.05,WSW,251,10.5,10.5,52,0.00,,,0.00,VWS V14.01,2013-02-12 01:33:00,
2013-02-11 20:38:00,44.6,28.3,30.05,West,269,6.0,7.5,52,0.00,,,0.00,VWS V14.01,2013-02-12 01:38:00,
2013-02-11 20:43:00,44.4,28.6,30.05,WSW,255,6.0,9.0,54,0.00,,,0.00,VWS V14.01,2013-02-12 01:43:00,
2013-02-11 20:48:00,44.2,28.9,30.05,West,273,4.5,4.5,55,0.00,,,0.00,VWS V14.01,2013-02-12 01:48:00,
2013-02-11 20:53:00,43.8,28.5,30.06,West,276,4.5,6.0,55,0.00,,,0.00,VWS V14.01,2013-02-12 01:53:00,
2013-02-11 20:58:00,43.6,28.3,30.06,WSW,258,3.0,4.5,55,0.00,,,0.00,VWS V14.01,2013-02-12 01:58:00,
2013-02-11 21:03:00,43.4,28.6,30.06,WSW,248,4.5,4.5,56,0.00,,,0.00,VWS V14.01,2013-02-12 02:03:00,
2013-02-11 21:08:00,43.1,28.3,30.06,WSW,258,3.0,6.0,56,0.00,,,0.00,VWS V14.01,2013-02-12 02:08:00,
2013-02-11 21:13:00,42.8,28.5,30.06,WSW,243,6.0,6.0,57,0.00,,,0.00,VWS V14.01,2013-02-12 02:13:00,
2013-02-11 21:18:00,42.7,28.4,30.06,SW,236,6.0,7.5,57,0.00,,,0.00,VWS V14.01,2013-02-12 02:18:00,
2013-02-11 21:23:00,42.6,28.3,30.07,WSW,254,4.5,7.5,57,0.00,,,0.00,VWS V14.01,2013-02-12 02:23:00,
2013-02-11 21:27:00,42.6,28.3,30.07,WSW,253,3.0,6.0,57,0.00,,,0.00,VWS V14.01,2013-02-12 02:27:00,
2013-02-11 21:32:00,42.5,28.7,30.07,WSW,245,4.5,4.5,58,0.00,,,0.00,VWS V14.01,2013-02-12 02:32:00,
2013-02-11 21:37:00,42.3,28.5,30.07,WSW,254,4.5,7.5,58,0.00,,,0.00,VWS V14.01,2013-02-12 02:37:00,
2013-02-11 21:42:00,42.3,28.5,30.07,WSW,247,6.0,6.0,58,0.00,,,0.00,VWS V14.01,2013-02-12 02:42:00,
2013-02-11 21:47:00,42.2,28.4,30.07,WSW,251,6.0,6.0,58,0.00,,,0.00,VWS V14.01,2013-02-12 02:47:00,
2013-02-11 21:52:00,41.9,28.5,30.07,SSW,209,3.0,6.0,59,0.00,,,0.00,VWS V14.01,2013-02-12 02:52:00,
2013-02-11 21:57:00,41.8,28.5,30.08,WSW,253,4.5,6.0,59,0.00,,,0.00,VWS V14.01,2013-02-12 02:57:00,
2013-02-11 22:02:00,41.6,28.3,30.07,WSW,245,6.0,7.5,59,0.00,,,0.00,VWS V14.01,2013-02-12 03:02:00,
2013-02-11 22:07:00,41.7,28.4,30.08,WSW,243,7.5,7.5,59,0.00,,,0.00,VWS V14.01,2013-02-12 03:07:00,
2013-02-11 22:12:00,41.6,28.3,30.08,WSW,253,7.5,10.5,59,0.00,,,0.00,VWS V14.01,2013-02-12 03:12:00,
2013-02-11 22:17:00,41.6,28.3,30.08,WSW,250,6.0,9.0,59,0.00,,,0.00,VWS V14.01,2013-02-12 03:17:00,
2013-02-11 22:22:00,41.6,28.3,30.08,SW,236,6.0,7.5,59,0.00,,,0.00,VWS V14.01,2013-02-12 03:22:00,
2013-02-11 22:27:00,41.6,28.3,30.08,WSW,258,6.0,7.5,59,0.00,,,0.00,VWS V14.01,2013-02-12 03:27:00,
2013-02-11 22:32:00,41.6,28.3,30.08,West,269,4.5,7.5,59,0.00,,,0.00,VWS V14.01,2013-02-12 03:32:00,
2013-02-11 22:37:00,41.6,28.3,30.08,WSW,250,6.0,6.0,59,0.00,,,0.00,VWS V14.01,2013-02-12 03:37:00,
2013-02-11 22:42:00,41.4,28.5,30.08,WSW,246,4.5,7.5,60,0.00,,,0.00,VWS V14.01,2013-02-12 03:42:00,
2013-02-11 22:47:00,41.5,28.6,30.08,WSW,257,6.0,9.0,60,0.00,,,0.00,VWS V14.01,2013-02-12 03:47:00,
2013-02-11 22:52:00,41.5,28.6,30.08,WSW,252,4.5,6.0,60,0.00,,,0.00,VWS V14.01,2013-02-12 03:52:00,
2013-02-11 22:57:00,41.4,28.5,30.08,WSW,257,7.5,7.5,60,0.00,,,0.00,VWS V14.01,2013-02-12 03:57:00,
2013-02-11 23:02:00,41.2,28.3,30.08,SW,226,6.0,9.0,60,0.00,,,0.00,VWS V14.01,2013-02-12 04:02:00,
2013-02-11 23:07:00,41.2,28.3,30.08,WSW,245,7.5,7.5,60,0.00,,,0.00,VWS V14.01,2013-02-12 04:07:00,
2013-02-11 23:12:00,41.0,28.1,30.09,WSW,252,7.5,7.5,60,0.00,,,0.00,VWS V14.01,2013-02-12 04:12:00,
2013-02-11 23:17:00,40.9,28.5,30.09,WSW,245,6.0,7.5,61,0.00,,,0.00,VWS V14.01,2013-02-12 04:17:00,
2013-02-11 23:22:00,40.8,28.4,30.09,WSW,237,6.0,6.0,61,0.00,,,0.00,VWS V14.01,2013-02-12 04:22:00,
2013-02-11 23:27:00,40.7,28.3,30.09,WSW,244,6.0,7.5,61,0.00,,,0.00,VWS V14.01,2013-02-12 04:27:00,
2013-02-11 23:32:00,40.7,28.3,30.10,WSW,238,6.0,7.5,61,0.00,,,0.00,VWS V14.01,2013-02-12 04:32:00,
2013-02-11 23:37:00,40.5,28.1,30.10,WSW,241,6.0,9.0,61,0.00,,,0.00,VWS V14.01,2013-02-12 04:37:00,
2013-02-11 23:42:00,40.3,28.3,30.10,WSW,237,7.5,7.5,62,0.00,,,0.00,VWS V14.01,2013-02-12 04:42:00,
2013-02-11 23:47:00,40.0,28.0,30.10,SW,226,4.5,6.0,62,0.00,,,0.00,VWS V14.01,2013-02-12 04:47:00,
2013-02-11 23:52:00,40.1,28.1,30.10,WSW,253,7.5,9.0,62,0.00,,,0.00,VWS V14.01,2013-02-12 04:52:00,
2013-02-11 23:57:00,40.2,27.8,30.10,WSW,250,9.0,9.0,61,0.00,,,0.00,VWS V14.01,2013-02-12 04:57:00,